Time;durP1;ratioP1;P1;durP2;ratioP2;P2;SDS_P1;SDS_P2;PMS_P1;PMS_P2;Temp;Humidity;BMP_temperature;BMP_pressure;BME280_temperature;BME280_humidity;BME280_pressure;Samples;Min_cycle;Max_cycle;Signal;HPM_P1;HPM_P2
2022/07/05 00:01:30;;;;;;;4.18;2.42;;;;;;;24.65;55.15;99695.19;4349044;32;34317;-78
2022/07/05 00:04:16;;;;;;;4.03;2.53;;;;;;;24.98;54.77;99695.84;4350190;32;35031;-77
2022/07/05 00:07:18;;;;;;;4.28;1.83;;;;;;;24.60;56.23;99698.41;4351353;32;34396;-78
2022/07/05 00:10:05;;;;;;;6.45;2.30;;;;;;;24.79;56.01;99707.53;4342668;32;33742;-77
2022/07/05 00:12:51;;;;;;;2.92;1.45;;;;;;;24.48;57.29;99698.03;4350233;32;34527;-78
2022/07/05 00:15:37;;;;;;;3.20;1.80;;;;;;;24.35;58.06;99704.03;4351356;32;34979;-77
2022/07/05 00:18:23;;;;;;;3.75;1.92;;;;;;;24.31;58.22;99692.06;4350826;32;34467;-77
2022/07/05 00:21:10;;;;;;;3.65;2.10;;;;;;;24.36;58.07;99679.63;4349824;32;34441;-77
2022/07/05 00:23:56;;;;;;;4.20;1.83;;;;;;;24.15;58.87;99672.87;4344851;32;35601;-78
2022/07/05 00:26:42;;;;;;;2.70;1.60;;;;;;;24.26;58.46;99660.88;4351304;32;35965;-77
2022/07/05 00:29:29;;;;;;;4.45;1.85;;;;;;;24.49;57.02;99661.22;4343286;32;34162;-77
2022/07/05 00:32:15;;;;;;;3.10;1.75;;;;;;;24.42;57.22;99653.62;4342583;32;33875;-78
2022/07/05 00:35:01;;;;;;;3.47;1.90;;;;;;;24.71;56.05;99652.75;4342961;32;35686;-76
2022/07/05 00:37:47;;;;;;;4.72;1.70;;;;;;;24.62;56.05;99639.19;4347709;32;35997;-78
2022/07/05 00:40:34;;;;;;;2.72;1.77;;;;;;;24.68;56.22;99646.75;4350906;32;34246;-78
2022/07/05 00:43:20;;;;;;;2.78;1.60;;;;;;;24.04;58.59;99649.69;4351846;32;34077;-77
2022/07/05 00:46:06;;;;;;;4.75;1.75;;;;;;;23.89;59.27;99650.94;4348725;32;34638;-78
2022/07/05 00:48:54;;;;;;;3.30;1.70;;;;;;;23.76;59.70;99650.53;4342636;32;34811;-79
2022/07/05 00:51:40;;;;;;;3.60;1.50;;;;;;;23.81;59.51;99646.53;4352421;32;34247;-77
2022/07/05 00:54:47;;;;;;;2.58;1.67;;;;;;;24.10;58.63;99644.50;4347688;32;35085;-78
2022/07/05 00:57:34;;;;;;;3.05;1.60;;;;;;;24.21;57.63;99648.88;4344181;32;34245;-78
2022/07/05 01:00:21;;;;;;;2.47;1.83;;;;;;;23.95;58.34;99654.91;4349550;32;35037;-78
2022/07/05 01:03:07;;;;;;;2.75;1.75;;;;;;;23.90;58.47;99649.72;4349545;32;33976;-78
2022/07/05 01:05:54;;;;;;;2.85;1.45;;;;;;;23.48;59.61;99645.69;4342387;32;33792;-78
2022/07/05 01:08:42;;;;;;;3.22;1.70;;;;;;;23.95;57.76;99641.72;4343054;32;34629;-78
2022/07/05 01:11:28;;;;;;;3.08;1.62;;;;;;;23.91;57.85;99645.75;4339271;32;34936;-78
2022/07/05 01:14:20;;;;;;;3.65;1.80;;;;;;;24.20;56.25;99652.09;4347222;32;35698;-78
2022/07/05 01:17:06;;;;;;;2.47;1.50;;;;;;;24.42;54.74;99652.84;4345026;32;34297;-78
2022/07/05 01:19:53;;;;;;;3.83;1.75;;;;;;;24.69;53.73;99645.53;4356691;32;34745;-78
2022/07/05 01:22:53;;;;;;;4.40;1.73;;;;;;;24.77;53.17;99646.31;4347693;32;35662;-78
2022/07/05 01:25:40;;;;;;;2.25;1.50;;;;;;;24.72;52.80;99643.94;4338271;32;34431;-78
2022/07/05 01:28:27;;;;;;;2.10;1.48;;;;;;;24.23;53.09;99640.88;4348926;32;35136;-77
2022/07/05 01:31:14;;;;;;;2.45;1.50;;;;;;;24.53;52.36;99633.19;4351916;32;34422;-78
2022/07/05 01:34:01;;;;;;;2.25;1.40;;;;;;;24.41;51.33;99628.81;4351452;32;35043;-78
2022/07/05 01:36:47;;;;;;;2.62;1.70;;;;;;;24.35;51.01;99624.84;4353661;32;34960;-78
2022/07/05 01:39:34;;;;;;;2.70;1.30;;;;;;;24.22;51.30;99633.69;4341654;32;33800;-78
2022/07/05 01:42:21;;;;;;;2.33;1.23;;;;;;;24.28;51.00;99636.03;4350373;32;35307;-78
2022/07/05 01:45:08;;;;;;;3.25;1.48;;;;;;;24.54;50.20;99632.03;4339562;32;34994;-78
2022/07/05 01:47:54;;;;;;;2.35;1.50;;;;;;;24.95;48.92;99640.63;4344423;32;34381;-78
2022/07/05 01:50:48;;;;;;;2.45;1.58;;;;;;;24.96;48.77;99625.41;4341646;32;34963;-79
2022/07/05 01:53:36;;;;;;;2.80;1.40;;;;;;;24.57;49.51;99626.41;4341877;32;35496;-78
2022/07/05 01:56:22;;;;;;;2.58;1.50;;;;;;;25.46;47.66;99622.28;4343659;32;35923;-78
2022/07/05 01:59:09;;;;;;;3.50;1.70;;;;;;;25.88;46.91;99620.37;4342558;32;34550;-78
2022/07/05 02:01:55;;;;;;;2.55;1.40;;;;;;;25.85;46.98;99626.03;4353237;32;34849;-78
2022/07/05 02:04:41;;;;;;;3.28;1.52;;;;;;;26.39;45.77;99638.28;4351261;32;34224;-78
2022/07/05 02:07:28;;;;;;;2.80;1.60;;;;;;;26.32;46.18;99641.16;4343611;32;33008;-78
2022/07/05 02:10:15;;;;;;;4.80;1.90;;;;;;;25.80;47.56;99638.44;4350446;32;33863;-78
2022/07/05 02:13:03;;;;;;;2.28;1.60;;;;;;;25.44;48.95;99637.94;4355619;32;34343;-78
2022/07/05 02:15:50;;;;;;;3.65;1.77;;;;;;;26.30;46.52;99631.56;4346942;32;34588;-78
2022/07/05 02:18:37;;;;;;;3.60;1.98;;;;;;;25.66;48.07;99633.75;4351936;32;34990;-78
2022/07/05 02:21:24;;;;;;;3.05;1.50;;;;;;;25.52;48.39;99622.66;4351509;32;36129;-78
2022/07/05 02:24:11;;;;;;;2.70;1.65;;;;;;;25.76;48.54;99609.63;4345042;32;34200;-78
2022/07/05 02:26:59;;;;;;;2.30;1.80;;;;;;;25.93;47.82;99602.28;4352477;32;35553;-79
2022/07/05 02:29:45;;;;;;;3.92;1.70;;;;;;;25.92;47.88;99595.84;4342933;32;35241;-78
2022/07/05 02:32:32;;;;;;;2.03;1.50;;;;;;;25.15;49.34;99614.91;4353394;32;35553;-79
2022/07/05 02:35:20;;;;;;;4.72;1.85;;;;;;;26.06;47.27;99614.56;4352338;32;33682;-79
2022/07/05 02:38:06;;;;;;;3.80;1.90;;;;;;;24.99;50.10;99621.81;4351258;32;35646;-78
2022/07/05 02:40:53;;;;;;;2.60;1.70;;;;;;;26.10;47.44;99625.75;4355555;32;34932;-78
2022/07/05 02:43:40;;;;;;;5.37;1.95;;;;;;;25.80;48.26;99630.03;4357090;32;35528;-79
2022/07/05 02:46:26;;;;;;;2.17;1.75;;;;;;;25.97;47.56;99631.12;4345300;32;34987;-79
2022/07/05 02:49:14;;;;;;;3.60;1.98;;;;;;;25.74;47.63;99634.50;4352143;32;34275;-78
2022/07/05 02:52:01;;;;;;;3.20;1.60;;;;;;;24.59;50.31;99629.59;4353572;32;35059;-78
2022/07/05 02:54:47;;;;;;;4.00;1.60;;;;;;;24.58;50.71;99627.19;4341233;32;34567;-78
2022/07/05 02:57:37;;;;;;;3.42;1.40;;;;;;;24.51;51.83;99624.44;4346282;32;35111;-78
2022/07/05 03:00:23;;;;;;;4.47;1.77;;;;;;;24.14;52.92;99620.91;4344902;32;35384;-78
2022/07/05 03:03:10;;;;;;;4.05;1.77;;;;;;;24.32;52.49;99631.25;4353099;32;34872;-78
2022/07/05 03:05:56;;;;;;;5.07;1.80;;;;;;;23.84;55.02;99618.53;4354682;32;34403;-78
2022/07/05 03:08:43;;;;;;;3.17;1.37;;;;;;;23.76;55.63;99611.34;4351140;32;35325;-78
2022/07/05 03:11:29;;;;;;;3.47;1.90;;;;;;;24.42;53.98;99620.03;4355857;32;34436;-79
2022/07/05 03:14:16;;;;;;;3.65;1.85;;;;;;;24.84;52.82;99617.47;4344437;32;35167;-78
2022/07/05 03:17:03;;;;;;;2.37;1.60;;;;;;;25.21;51.94;99618.88;4353364;32;34619;-78
2022/07/05 03:19:49;;;;;;;4.43;1.90;;;;;;;25.48;51.62;99611.47;4356855;32;34374;-78
2022/07/05 03:22:36;;;;;;;3.75;1.77;;;;;;;24.90;53.25;99621.44;4352832;32;34697;-78
2022/07/05 03:25:23;;;;;;;2.58;1.70;;;;;;;25.36;51.87;99603.56;4354268;32;35070;-78
2022/07/05 03:28:10;;;;;;;5.07;1.87;;;;;;;25.66;51.02;99618.94;4350812;32;35509;-78
2022/07/05 03:30:57;;;;;;;4.43;1.80;;;;;;;25.18;52.98;99625.31;4347969;32;35268;-78
2022/07/05 03:33:44;;;;;;;3.67;1.90;;;;;;;25.61;51.88;99630.59;4344674;32;34259;-78
2022/07/05 03:36:31;;;;;;;3.37;1.95;;;;;;;24.89;54.17;99642.25;4352973;32;34992;-78
2022/07/05 03:39:20;;;;;;;3.95;1.75;;;;;;;23.66;58.76;99646.50;4341158;32;32799;-77
2022/07/05 03:42:06;;;;;;;2.62;1.73;;;;;;;23.73;59.32;99652.13;4349393;32;34094;-77
2022/07/05 03:44:53;;;;;;;3.12;1.98;;;;;;;23.40;60.88;99652.50;4350630;32;34692;-77
2022/07/05 03:47:40;;;;;;;4.03;2.17;;;;;;;23.28;61.64;99654.47;4340612;32;34950;-77
2022/07/05 03:50:27;;;;;;;6.25;2.00;;;;;;;22.80;63.81;99648.31;4353050;32;34636;-76
2022/07/05 03:53:15;;;;;;;4.07;2.25;;;;;;;22.63;64.74;99661.03;4344166;32;33792;-76
2022/07/05 03:56:02;;;;;;;7.47;1.67;;;;;;;22.72;65.06;99669.03;4344077;32;34051;-76
2022/07/05 03:58:49;;;;;;;4.37;1.90;;;;;;;22.72;64.91;99666.25;4345179;32;36024;-75
2022/07/05 04:01:35;;;;;;;2.60;1.70;;;;;;;22.71;65.05;99676.59;4345496;32;35575;-75
2022/07/05 04:04:22;;;;;;;2.20;1.77;;;;;;;22.75;65.33;99677.41;4354009;32;34402;-75
2022/07/05 04:07:08;;;;;;;5.37;1.90;;;;;;;22.62;66.35;99688.13;4338849;32;34519;-76
2022/07/05 04:09:55;;;;;;;5.37;1.92;;;;;;;22.81;65.36;99692.59;4352890;32;34924;-75
2022/07/05 04:12:42;;;;;;;3.83;1.80;;;;;;;22.53;66.28;99692.47;4352335;32;34696;-76
2022/07/05 04:15:29;;;;;;;4.82;1.80;;;;;;;23.18;63.83;99679.59;4354125;32;35093;-76
2022/07/05 04:18:16;;;;;;;2.30;1.60;;;;;;;22.88;64.80;99678.69;4355487;32;34696;-76
2022/07/05 04:21:03;;;;;;;4.30;1.75;;;;;;;23.54;62.34;99677.66;4351077;32;36007;-77
2022/07/05 04:23:49;;;;;;;2.97;1.60;;;;;;;23.41;62.21;99677.25;4346070;32;34281;-77
2022/07/05 04:26:36;;;;;;;4.22;1.48;;;;;;;23.16;61.94;99677.19;4336564;32;33994;-76
2022/07/05 04:29:23;;;;;;;3.42;1.70;;;;;;;23.39;60.93;99676.81;4351832;32;35676;-76
2022/07/05 04:32:09;;;;;;;3.50;1.80;;;;;;;23.56;59.65;99676.06;4351977;32;34955;-77
2022/07/05 04:34:56;;;;;;;2.80;1.60;;;;;;;23.94;58.54;99667.31;4341600;32;34581;-76
2022/07/05 04:37:42;;;;;;;2.62;1.80;;;;;;;23.94;58.30;99656.13;4349548;32;35155;-77
2022/07/05 04:40:28;;;;;;;3.92;1.70;;;;;;;23.64;60.20;99654.50;4342901;32;35473;-76
2022/07/05 04:43:15;;;;;;;3.97;2.00;;;;;;;23.45;60.87;99658.50;4352853;32;34634;-76
2022/07/05 04:46:02;;;;;;;3.80;2.00;;;;;;;22.98;62.06;99668.75;4351908;32;35452;-76
2022/07/05 04:48:48;;;;;;;4.22;1.80;;;;;;;22.91;62.49;99663.13;4352031;32;33850;-76
2022/07/05 04:51:35;;;;;;;3.92;1.77;;;;;;;23.44;61.06;99661.66;4350890;32;34306;-75
2022/07/05 04:54:22;;;;;;;2.33;1.62;;;;;;;23.22;62.02;99653.22;4348725;32;34800;-77
2022/07/05 04:57:09;;;;;;;5.03;1.60;;;;;;;23.83;59.85;99655.34;4352633;32;35573;-76
2022/07/05 04:59:55;;;;;;;3.15;1.77;;;;;;;23.52;59.57;99649.28;4349633;32;33949;-77
2022/07/05 05:02:41;;;;;;;5.18;1.48;;;;;;;23.69;59.30;99651.28;4349596;32;35480;-77
2022/07/05 05:05:28;;;;;;;3.58;1.77;;;;;;;23.83;57.91;99647.72;4341246;32;36032;-81
2022/07/05 05:08:14;;;;;;;2.85;1.48;;;;;;;23.71;58.38;99643.34;4342128;32;35656;-82
2022/07/05 05:11:00;;;;;;;3.87;1.60;;;;;;;24.01;57.09;99644.91;4339346;32;35662;-81
2022/07/05 05:13:47;;;;;;;3.12;1.50;;;;;;;24.14;57.19;99642.50;4346139;32;34712;-82
2022/07/05 05:16:33;;;;;;;4.22;1.50;;;;;;;24.42;55.84;99647.25;4353028;32;34541;-82
2022/07/05 05:19:20;;;;;;;3.97;2.05;;;;;;;24.41;56.08;99651.22;4350158;32;34270;-80
2022/07/05 05:22:07;;;;;;;3.42;1.75;;;;;;;24.12;55.30;99634.50;4332389;32;34198;-81
2022/07/05 05:24:53;;;;;;;3.47;1.48;;;;;;;24.24;57.09;99634.06;4352434;32;34728;-81
2022/07/05 05:27:48;;;;;;;2.30;1.50;;;;;;;24.50;55.01;99643.22;4343471;32;35614;-80
2022/07/05 05:30:34;;;;;;;4.03;1.52;;;;;;;23.98;55.64;99640.13;4341578;32;34092;-81
2022/07/05 05:33:21;;;;;;;3.92;1.60;;;;;;;24.08;55.69;99644.91;4349906;32;33772;-80
2022/07/05 05:36:12;;;;;;;6.62;1.87;;;;;;;23.94;56.26;99650.53;4342353;32;35454;-81
2022/07/05 05:38:58;;;;;;;6.97;2.17;;;;;;;23.79;57.59;99656.13;4351065;32;34978;-80
2022/07/05 05:41:45;;;;;;;4.53;1.60;;;;;;;23.83;57.79;99650.53;4350096;32;35187;-80
2022/07/05 05:44:31;;;;;;;4.03;1.55;;;;;;;24.16;56.40;99659.66;4352965;32;94554;-79
2022/07/05 05:47:17;;;;;;;3.10;1.60;;;;;;;24.14;55.74;99654.50;4352624;32;34528;-79
2022/07/05 05:50:04;;;;;;;2.42;1.55;;;;;;;24.08;55.81;99660.88;4347908;32;36487;-80
2022/07/05 05:52:50;;;;;;;3.33;1.60;;;;;;;23.92;55.78;99664.13;4344257;32;35422;-81
2022/07/05 05:55:37;;;;;;;2.33;1.70;;;;;;;23.77;57.28;99661.31;4353884;32;35333;-80
2022/07/05 05:58:24;;;;;;;2.35;1.50;;;;;;;23.28;58.25;99676.84;4352813;32;33493;-79
2022/07/05 06:01:10;;;;;;;4.43;1.48;;;;;;;23.67;57.69;99681.66;4358685;32;35706;-81
2022/07/05 06:03:57;;;;;;;2.58;1.42;;;;;;;23.68;57.81;99683.28;4359718;32;34705;-80
2022/07/05 06:06:43;;;;;;;3.55;1.67;;;;;;;24.02;57.14;99686.50;4357826;32;34234;-80
2022/07/05 06:09:29;;;;;;;4.80;1.60;;;;;;;23.78;57.67;99693.69;4356367;32;33743;-80
2022/07/05 06:12:15;;;;;;;3.72;1.58;;;;;;;24.22;56.57;99686.88;4358903;32;34930;-80
2022/07/05 06:15:02;;;;;;;2.00;1.60;;;;;;;23.98;57.94;99682.09;4358708;32;34554;-80
2022/07/05 06:17:48;;;;;;;3.75;1.90;;;;;;;24.21;57.17;99679.66;4358744;32;34216;-80
2022/07/05 06:20:38;;;;;;;5.57;1.80;;;;;;;23.87;57.66;99681.28;4350072;32;34569;-79
2022/07/05 06:23:24;;;;;;;4.43;1.55;;;;;;;24.21;56.66;99685.25;4337631;32;34561;-80
2022/07/05 06:26:10;;;;;;;3.70;1.40;;;;;;;23.88;56.98;99672.50;4357485;32;33371;-80
2022/07/05 06:28:56;;;;;;;3.58;1.62;;;;;;;23.98;56.77;99674.50;4344707;32;33898;-81
2022/07/05 06:31:43;;;;;;;4.37;1.70;;;;;;;24.24;56.19;99680.84;4357828;32;35538;-77
2022/07/05 06:34:29;;;;;;;4.53;1.77;;;;;;;24.28;56.27;99678.88;4356934;32;34472;-79
2022/07/05 06:37:22;;;;;;;3.35;1.27;;;;;;;24.13;57.10;99680.06;4355293;32;34492;-81
2022/07/05 06:40:12;;;;;;;2.42;1.10;;;;;;;24.34;56.63;99673.66;4355613;32;36603;-80
2022/07/05 06:43:06;;;;;;;2.53;1.40;;;;;;;23.99;57.37;99678.09;4356604;32;35670;-82
2022/07/05 06:45:55;;;;;;;3.05;1.60;;;;;;;24.55;55.67;99682.00;4357730;32;35353;-84
2022/07/05 06:48:42;;;;;;;3.53;1.60;;;;;;;24.22;56.63;99677.69;4352980;32;34577;-83
2022/07/05 06:51:28;;;;;;;2.85;1.30;;;;;;;23.93;57.43;99660.91;4353096;32;34053;-83
2022/07/05 06:54:14;;;;;;;2.67;1.33;;;;;;;24.48;56.68;99662.44;4355981;32;35835;-80
2022/07/05 06:57:21;;;;;;;3.28;1.50;;;;;;;24.37;55.54;99658.84;4343624;32;35888;-79
2022/07/05 07:00:16;;;;;;;2.37;1.35;;;;;;;24.26;56.27;99644.06;4350291;32;35674;-80
2022/07/05 07:03:22;;;;;;;2.40;1.70;;;;;;;24.57;56.28;99664.81;4349208;32;34210;-80
2022/07/05 07:06:29;;;;;;;3.33;1.30;;;;;;;24.75;54.30;99650.72;4351268;32;34677;-80
2022/07/05 07:09:18;;;;;;;2.65;1.37;;;;;;;24.81;54.50;99658.31;4344627;32;34834;-80
2022/07/05 07:12:05;;;;;;;3.97;1.40;;;;;;;24.69;54.79;99655.97;4346207;32;34513;-83
2022/07/05 07:14:51;;;;;;;2.72;1.45;;;;;;;24.52;55.41;99662.44;4353754;32;33917;-81
2022/07/05 07:17:37;;;;;;;2.60;1.35;;;;;;;24.15;56.26;99656.06;4352649;32;34635;-79
2022/07/05 07:20:24;;;;;;;2.22;1.20;;;;;;;24.05;56.05;99658.87;4349448;32;35976;-77
2022/07/05 07:23:11;;;;;;;6.90;1.30;;;;;;;23.87;55.65;99658.91;4347198;32;34576;-82
2022/07/05 07:25:57;;;;;;;2.87;1.25;;;;;;;24.00;54.97;99660.91;4344744;32;35073;-79
2022/07/05 07:28:44;;;;;;;3.67;1.20;;;;;;;24.15;54.72;99663.69;4354504;32;34284;-80
2022/07/05 07:31:30;;;;;;;2.33;1.10;;;;;;;24.42;54.12;99658.44;4343566;32;34875;-75
2022/07/05 07:34:17;;;;;;;2.92;1.50;;;;;;;24.01;55.68;99656.91;4353429;32;34606;-77
2022/07/05 07:37:04;;;;;;;4.45;1.27;;;;;;;23.78;56.67;99650.94;4358681;32;34193;-78
2022/07/05 07:39:50;;;;;;;1.50;1.25;;;;;;;23.82;57.15;99653.72;4352062;32;34602;-80
2022/07/05 07:42:37;;;;;;;2.78;1.17;;;;;;;23.58;58.39;99653.28;4348655;32;35004;-81
2022/07/05 07:45:23;;;;;;;2.45;1.20;;;;;;;24.30;56.52;99656.06;4343476;32;35331;-80
2022/07/05 07:48:10;;;;;;;3.10;1.42;;;;;;;24.21;57.48;99668.47;4354366;32;33887;-78
2022/07/05 07:50:56;;;;;;;2.35;1.58;;;;;;;23.77;58.38;99657.72;4353385;32;34672;-82
2022/07/05 07:53:43;;;;;;;2.00;1.50;;;;;;;23.57;60.28;99655.28;4347155;32;34944;-81
2022/07/05 07:56:29;;;;;;;1.70;1.12;;;;;;;23.71;60.02;99659.34;4352372;32;33349;-82
2022/07/05 07:59:15;;;;;;;3.70;1.58;;;;;;;23.44;60.45;99661.66;4350262;32;34088;-83
2022/07/05 08:02:02;;;;;;;1.80;1.30;;;;;;;23.35;60.31;99662.84;4340348;32;35434;-84
2022/07/05 08:04:50;;;;;;;5.05;1.35;;;;;;;23.78;59.50;99662.91;4347532;32;36208;-80
2022/07/05 08:07:36;;;;;;;6.85;1.45;;;;;;;24.00;59.25;99665.72;4346594;32;34241;-75
2022/07/05 08:10:22;;;;;;;3.28;2.15;;;;;;;23.42;60.93;99670.44;4349758;32;33721;-80
2022/07/05 08:13:08;;;;;;;4.80;1.55;;;;;;;24.30;58.89;99667.25;4347272;32;34562;-81
2022/07/05 08:15:55;;;;;;;5.12;1.40;;;;;;;24.09;59.70;99660.50;4351393;32;34577;-80
2022/07/05 08:21:47;;;;;;;2.50;1.80;;;;;;;23.81;61.32;99675.31;4348275;32;34126;-80
2022/07/05 08:24:35;;;;;;;2.80;1.52;;;;;;;23.72;61.60;99684.09;4352780;32;34712;-79
2022/07/05 08:27:21;;;;;;;2.78;1.50;;;;;;;23.69;62.20;99679.28;4358981;32;35346;-79
2022/07/05 08:30:08;;;;;;;3.37;1.60;;;;;;;23.85;61.96;99683.69;4354661;32;34836;-79
2022/07/05 08:32:55;;;;;;;3.80;1.58;;;;;;;24.43;60.15;99682.47;4345684;32;34165;-77
2022/07/05 08:35:41;;;;;;;5.00;1.50;;;;;;;24.19;61.04;99696.09;4348848;32;35292;-79
2022/07/05 08:38:28;;;;;;;2.53;1.48;;;;;;;24.14;61.83;99685.28;4355193;32;36332;-81
2022/07/05 08:41:17;;;;;;;3.25;1.60;;;;;;;24.29;61.63;99685.25;4343489;32;34893;-80
2022/07/05 08:44:05;;;;;;;4.37;1.80;;;;;;;24.54;61.07;99688.03;4342463;32;33178;-77
2022/07/05 08:46:52;;;;;;;1.67;1.40;;;;;;;25.00;59.30;99685.03;4354621;32;34603;-76
2022/07/05 08:49:42;;;;;;;2.92;1.30;;;;;;;24.30;59.02;99675.66;4343855;32;34931;-77
2022/07/05 08:52:28;;;;;;;2.22;1.70;;;;;;;24.04;60.78;99682.50;4347355;32;34387;-77
2022/07/05 08:55:15;;;;;;;4.30;1.40;;;;;;;23.93;60.81;99697.28;4345836;32;34156;-77
2022/07/05 08:58:02;;;;;;;1.87;1.65;;;;;;;24.30;60.51;99695.25;4354085;32;33485;-77
2022/07/05 09:00:48;;;;;;;4.43;1.27;;;;;;;23.12;63.64;99691.16;4347958;32;35040;-75
2022/07/05 09:03:42;;;;;;;3.72;1.55;;;;;;;23.17;63.75;99692.78;4334794;32;34348;-76
2022/07/05 09:06:32;;;;;;;8.63;1.65;;;;;;;23.01;65.18;99698.69;4348492;32;35065;-78
2022/07/05 09:09:18;;;;;;;3.37;2.40;;;;;;;23.16;65.26;99702.34;4345738;32;35591;-75
2022/07/05 09:12:06;;;;;;;6.28;4.05;;;;;;;23.06;65.04;99698.31;4357269;32;34594;-79
2022/07/05 09:15:10;;;;;;;8.70;5.93;;;;;;;23.21;65.27;99693.56;4346166;32;35946;-75
2022/07/05 09:17:57;;;;;;;6.75;2.30;;;;;;;23.55;64.83;99691.25;4340356;32;34987;-77
2022/07/05 09:20:46;;;;;;;6.68;3.65;;;;;;;23.15;65.76;99688.78;4361344;32;34716;-76
2022/07/05 09:23:37;;;;;;;8.30;2.90;;;;;;;23.24;66.04;99692.78;4359432;32;36065;-81
2022/07/05 09:26:35;;;;;;;10.93;4.55;;;;;;;23.35;65.62;99679.63;4362142;32;35875;-76
2022/07/05 09:29:22;;;;;;;9.70;3.78;;;;;;;23.11;66.73;99691.56;4363037;32;34391;-77
2022/07/05 09:32:30;;;;;;;5.50;2.20;;;;;;;23.42;65.38;99692.00;4359217;32;35635;-71
2022/07/05 09:35:19;;;;;;;5.32;2.20;;;;;;;23.06;67.10;99697.53;4357109;32;35069;-75
2022/07/05 09:38:06;;;;;;;6.60;2.83;;;;;;;22.88;67.69;99689.84;4357360;32;34984;-76
2022/07/05 09:40:58;;;;;;;8.68;3.10;;;;;;;23.17;68.51;99703.94;4356100;32;33884;-77
2022/07/05 09:43:45;;;;;;;7.93;2.25;;;;;;;22.92;69.22;99686.28;4343554;32;34206;-76
2022/07/05 09:46:33;;;;;;;6.07;2.15;;;;;;;22.90;69.10;99700.62;4356760;32;34685;-77
2022/07/05 09:49:25;;;;;;;5.82;1.98;;;;;;;22.89;69.26;99705.41;4358773;32;34874;-75
2022/07/05 09:52:29;;;;;;;7.30;2.15;;;;;;;22.24;72.62;99725.78;4347386;32;35474;-77
2022/07/05 09:55:17;;;;;;;5.93;2.65;;;;;;;22.09;73.08;99726.84;4347933;32;34571;-77
2022/07/05 09:58:04;;;;;;;13.27;3.30;;;;;;;22.14;79.72;99752.41;4345647;32;34574;-77
2022/07/05 10:00:50;;;;;;;11.00;3.92;;;;;;;21.93;84.92;99750.22;4344748;32;34906;-75
2022/07/05 10:03:56;;;;;;;12.13;3.53;;;;;;;20.83;99.14;99745.00;4337146;32;35259;-78
2022/07/05 10:06:42;;;;;;;8.63;3.37;;;;;;;20.31;100.00;99762.50;4336630;32;34659;-77
2022/07/05 10:09:30;;;;;;;11.40;5.10;;;;;;;19.98;100.00;99778.69;4356740;32;34978;-77
2022/07/05 10:12:17;;;;;;;8.23;3.62;;;;;;;20.03;100.00;99771.97;4354679;32;34528;-79
2022/07/05 10:15:04;;;;;;;7.15;3.65;;;;;;;19.71;100.00;99752.75;4345698;32;33908;-80
2022/07/05 10:17:54;;;;;;;7.28;3.40;;;;;;;19.69;100.00;99757.87;4345278;32;35699;-79
2022/07/05 10:20:44;;;;;;;4.47;3.43;;;;;;;19.97;100.00;99771.50;4339506;32;34868;-81
2022/07/05 10:23:31;;;;;;;6.05;3.90;;;;;;;19.74;100.00;99763.13;4354567;32;34695;-80
2022/07/05 10:26:18;;;;;;;7.72;3.45;;;;;;;19.62;100.00;99779.97;4355631;32;33114;-81
2022/07/05 10:29:04;;;;;;;7.82;3.85;;;;;;;19.72;100.00;99784.97;4341470;32;35242;-82
2022/07/05 10:31:50;;;;;;;6.70;3.92;;;;;;;19.63;100.00;99773.22;4351886;32;35872;-82
2022/07/05 10:34:37;;;;;;;6.90;3.65;;;;;;;19.99;100.00;99768.34;4354245;32;35844;-83
2022/07/05 10:37:41;;;;;;;7.00;3.47;;;;;;;19.67;100.00;99763.03;4343898;32;36085;-80
2022/07/05 10:40:29;;;;;;;5.53;3.58;;;;;;;19.68;100.00;99786.88;4341157;32;34597;-84
2022/07/05 10:43:21;;;;;;;5.97;3.47;;;;;;;19.86;100.00;99789.16;4339017;32;34914;-85
2022/07/05 10:46:08;;;;;;;5.15;3.87;;;;;;;20.43;100.00;99790.13;4338727;32;35013;-84
2022/07/05 10:49:17;;;;;;;6.25;3.85;;;;;;;20.04;100.00;99784.72;4341770;32;34194;-86
2022/07/05 10:52:23;;;;;;;8.15;4.15;;;;;;;20.07;100.00;99786.78;4349432;32;34187;-85
2022/07/05 10:55:16;;;;;;;6.25;3.72;;;;;;;19.99;100.00;99787.81;4353910;32;35612;-82
2022/07/05 10:58:19;;;;;;;7.75;4.30;;;;;;;19.82;100.00;99789.09;4356230;32;34997;-84
2022/07/05 11:01:20;;;;;;;7.32;4.40;;;;;;;19.98;100.00;99794.56;4342467;32;33966;-87
2022/07/05 11:04:13;;;;;;;7.57;4.50;;;;;;;20.22;100.00;99798.94;4350146;32;34748;-84
2022/07/05 11:07:00;;;;;;;7.10;4.65;;;;;;;19.99;100.00;99812.84;4349799;32;34111;-87
2022/07/05 11:09:59;;;;;;;5.78;4.75;;;;;;;20.11;100.00;99804.31;4342005;32;35776;-88
2022/07/05 11:12:46;;;;;;;7.70;5.03;;;;;;;20.39;100.00;99814.31;4347290;32;33224;-84
2022/07/05 11:15:32;;;;;;;6.95;4.10;;;;;;;20.32;100.00;99814.19;4343294;32;34492;-81
2022/07/05 11:18:23;;;;;;;6.10;4.18;;;;;;;20.14;100.00;99814.69;4356021;32;35199;-80
2022/07/05 11:21:21;;;;;;;6.93;4.53;;;;;;;19.91;100.00;99823.03;4348353;32;35680;-88
2022/07/05 11:24:22;;;;;;;6.35;4.55;;;;;;;20.14;100.00;99809.13;4342671;32;34388;-84
2022/07/05 11:27:12;;;;;;;5.80;4.30;;;;;;;20.13;100.00;99813.09;4345477;32;34578;-84
2022/07/05 11:29:59;;;;;;;5.10;3.40;;;;;;;20.10;100.00;99791.59;4352335;32;34952;-82
2022/07/05 11:32:45;;;;;;;6.93;3.53;;;;;;;19.95;100.00;99773.84;4346822;32;35476;-81
2022/07/05 11:35:33;;;;;;;4.65;3.47;;;;;;;19.97;100.00;99768.72;4348545;32;34448;-80
2022/07/05 11:38:19;;;;;;;7.28;4.25;;;;;;;19.79;100.00;99761.25;4345477;32;35346;-83
2022/07/05 11:41:14;;;;;;;6.07;3.50;;;;;;;19.96;100.00;99766.31;4339722;32;35646;-84
2022/07/05 11:44:01;;;;;;;5.75;3.47;;;;;;;20.49;100.00;99771.94;4339470;32;35697;-81
2022/07/05 11:46:49;;;;;;;8.68;4.40;;;;;;;20.02;100.00;99770.38;4350814;32;35296;-88
2022/07/05 11:49:36;;;;;;;6.03;3.83;;;;;;;20.12;100.00;99778.13;4351882;32;35577;-87
2022/07/05 11:52:30;;;;;;;6.87;3.95;;;;;;;20.02;100.00;99778.72;4341994;32;34516;-84
2022/07/05 11:55:17;;;;;;;5.28;4.20;;;;;;;20.04;100.00;99772.81;4342557;32;34675;-88
2022/07/05 11:58:08;;;;;;;5.12;3.58;;;;;;;20.33;100.00;99765.72;4341735;32;33834;-84
2022/07/05 12:00:57;;;;;;;5.18;3.78;;;;;;;20.19;100.00;99755.16;4349789;32;34573;-84
2022/07/05 12:03:57;;;;;;;6.78;3.70;;;;;;;20.51;100.00;99755.66;4340075;32;34541;-84
2022/07/05 12:06:43;;;;;;;6.32;3.42;;;;;;;20.40;100.00;99749.91;4349986;32;35773;-85
2022/07/05 12:12:44;;;;;;;6.03;3.20;;;;;;;20.80;100.00;99756.87;4348314;32;34758;-86
2022/07/05 12:15:31;;;;;;;5.95;3.53;;;;;;;20.64;100.00;99748.72;4349984;32;34973;-87
2022/07/05 12:18:17;;;;;;;7.07;4.00;;;;;;;20.93;100.00;99743.53;4342252;32;35012;-86
2022/07/05 12:21:11;;;;;;;8.88;4.55;;;;;;;21.33;100.00;99750.37;4349758;32;34970;-86
2022/07/05 12:23:58;;;;;;;6.57;4.30;;;;;;;20.92;100.00;99739.16;4351699;32;34747;-84
2022/07/05 12:26:45;;;;;;;5.18;3.97;;;;;;;20.98;100.00;99750.78;4352994;32;36028;-85
2022/07/05 12:29:33;;;;;;;7.05;4.55;;;;;;;20.83;100.00;99749.75;4330068;32;34418;-86
2022/07/05 12:32:19;;;;;;;7.57;4.35;;;;;;;20.83;100.00;99761.72;4336475;32;34247;-86
2022/07/05 12:35:26;;;;;;;7.57;4.93;;;;;;;20.86;100.00;99751.78;4351938;32;34753;-88
2022/07/05 12:38:15;;;;;;;7.37;5.07;;;;;;;20.63;100.00;99763.84;4352091;32;35974;-84
2022/07/05 12:41:01;;;;;;;7.70;5.37;;;;;;;20.80;100.00;99764.44;4347169;32;35765;-88
2022/07/05 12:43:54;;;;;;;7.05;4.53;;;;;;;20.52;100.00;99760.06;4350191;32;34370;-86
2022/07/05 12:46:42;;;;;;;7.25;5.97;;;;;;;20.38;100.00;99762.63;4337876;32;35588;-87
2022/07/05 12:49:29;;;;;;;7.72;5.10;;;;;;;20.15;100.00;99759.84;4346935;32;34876;-86
2022/07/05 12:52:16;;;;;;;7.90;5.40;;;;;;;20.42;100.00;99744.00;4343281;32;33732;-86
2022/07/05 12:58:17;;;;;;;8.77;5.45;;;;;;;20.54;100.00;99732.66;4351164;32;35254;-83
2022/07/05 13:01:18;;;;;;;8.48;6.00;;;;;;;19.72;100.00;99723.81;4341640;32;35944;-85
2022/07/05 13:04:09;;;;;;;12.93;6.57;;;;;;;19.98;100.00;99722.25;4353390;32;35356;-84
2022/07/05 13:06:59;;;;;;;9.07;5.78;;;;;;;20.82;100.00;99709.19;4343915;32;33355;-81
2022/07/05 13:09:50;;;;;;;6.30;5.15;;;;;;;20.52;100.00;99712.75;4357256;32;34207;-81
2022/07/05 13:12:37;;;;;;;9.48;5.40;;;;;;;20.82;100.00;99711.97;4357166;32;35010;-81
2022/07/05 13:15:24;;;;;;;6.20;4.65;;;;;;;21.14;100.00;99705.97;4342207;32;35350;-82
2022/07/05 13:18:10;;;;;;;6.62;4.10;;;;;;;21.49;100.00;99703.63;4352461;32;34333;-82
2022/07/05 13:20:57;;;;;;;6.60;4.25;;;;;;;20.96;100.00;99703.78;4346091;32;35105;-80